Terminal Aerodrome Forecast
Issued by NWS Wilmington, OH

Current Version | Previous Version | Graphics & Text | Print | Product List | Glossary On
Versions: 1 2 3 4 5 6 7 8 9 10 11 12 13 14 15 16 17 18 19 20 21 22 23 24 25
000
FTUS41 KILN 121143
TAFDAY
TAF
KDAY 121143Z 1212/1312 31015G23KT 3SM -SHSN BKN018 OVC035
     FM121300 31017G25KT P6SM VCSH SCT022 OVC040
     FM121700 31018G26KT 5SM -SHSN BKN022 OVC040
      TEMPO 1217/1219 1SM -SHSN
     FM122000 30018G26KT P6SM VCSH BKN035
     FM130000 29014KT P6SM BKN035
     FM130600 26007KT P6SM SCT035=

USA.gov is the U.S. government's official web portal to all federal, state and local government web resources and services.